sensor_id;sensor_type;location;lat;lon;timestamp;pressure;altitude;pressure_sealevel;temperature;humidity
73936;BME280;62287;50.858;0.252;2023-04-07T00:00:11;101628.95;;;14.65;35.61
73936;BME280;62287;50.858;0.252;2023-04-07T00:00:43;101627.59;;;14.72;35.63
73936;BME280;62287;50.858;0.252;2023-04-07T00:01:14;101628.89;;;14.73;35.65
73936;BME280;62287;50.858;0.252;2023-04-07T00:01:44;101630.20;;;14.69;35.62
73936;BME280;62287;50.858;0.252;2023-04-07T00:02:15;101632.78;;;14.67;35.69
73936;BME280;62287;50.858;0.252;2023-04-07T00:02:46;101631.90;;;15.11;35.58
73936;BME280;62287;50.858;0.252;2023-04-07T00:03:17;101634.70;;;14.66;35.58
73936;BME280;62287;50.858;0.252;2023-04-07T00:03:48;101631.17;;;14.87;35.55
73936;BME280;62287;50.858;0.252;2023-04-07T00:04:19;101634.05;;;14.83;35.48
73936;BME280;62287;50.858;0.252;2023-04-07T00:04:50;101635.02;;;14.79;35.69
73936;BME280;62287;50.858;0.252;2023-04-07T00:05:21;101634.65;;;14.87;35.44
73936;BME280;62287;50.858;0.252;2023-04-07T00:05:52;101636.19;;;14.91;35.42
73936;BME280;62287;50.858;0.252;2023-04-07T00:06:23;101635.16;;;14.78;35.45
73936;BME280;62287;50.858;0.252;2023-04-07T00:06:54;101634.41;;;14.79;35.58
73936;BME280;62287;50.858;0.252;2023-04-07T00:07:25;101634.22;;;14.68;35.59
73936;BME280;62287;50.858;0.252;2023-04-07T00:07:56;101633.43;;;14.71;35.52
73936;BME280;62287;50.858;0.252;2023-04-07T00:08:27;101633.36;;;14.69;35.57
73936;BME280;62287;50.858;0.252;2023-04-07T00:08:58;101633.91;;;14.73;35.57
73936;BME280;62287;50.858;0.252;2023-04-07T00:09:29;101632.31;;;15.11;35.57
73936;BME280;62287;50.858;0.252;2023-04-07T00:10:00;101633.74;;;14.77;35.65
73936;BME280;62287;50.858;0.252;2023-04-07T00:10:31;101633.37;;;14.76;35.73
73936;BME280;62287;50.858;0.252;2023-04-07T00:11:02;101632.51;;;14.76;35.58
73936;BME280;62287;50.858;0.252;2023-04-07T00:11:33;101630.93;;;14.77;35.54
73936;BME280;62287;50.858;0.252;2023-04-07T00:12:04;101632.12;;;14.71;35.55
73936;BME280;62287;50.858;0.252;2023-04-07T00:12:35;101631.85;;;14.83;35.48
73936;BME280;62287;50.858;0.252;2023-04-07T00:13:11;101633.74;;;14.73;35.54
73936;BME280;62287;50.858;0.252;2023-04-07T00:13:42;101632.91;;;14.68;35.59
73936;BME280;62287;50.858;0.252;2023-04-07T00:14:12;101631.48;;;14.72;35.53
73936;BME280;62287;50.858;0.252;2023-04-07T00:14:43;101633.12;;;14.59;35.64
73936;BME280;62287;50.858;0.252;2023-04-07T00:15:14;101631.92;;;14.63;35.62
73936;BME280;62287;50.858;0.252;2023-04-07T00:15:45;101634.60;;;15.30;35.65
73936;BME280;62287;50.858;0.252;2023-04-07T00:16:16;101634.68;;;14.64;35.60
73936;BME280;62287;50.858;0.252;2023-04-07T00:16:47;101633.82;;;14.58;35.67
73936;BME280;62287;50.858;0.252;2023-04-07T00:17:18;101634.10;;;14.60;35.65
73936;BME280;62287;50.858;0.252;2023-04-07T00:17:49;101632.83;;;14.54;35.73
73936;BME280;62287;50.858;0.252;2023-04-07T00:18:20;101633.52;;;14.50;35.71
73936;BME280;62287;50.858;0.252;2023-04-07T00:18:51;101633.69;;;14.56;35.68
73936;BME280;62287;50.858;0.252;2023-04-07T00:19:27;101633.26;;;14.51;35.78
73936;BME280;62287;50.858;0.252;2023-04-07T00:19:57;101634.73;;;14.62;35.64
73936;BME280;62287;50.858;0.252;2023-04-07T00:20:29;101635.35;;;14.66;35.59
73936;BME280;62287;50.858;0.252;2023-04-07T00:21:00;101632.96;;;15.01;35.61
73936;BME280;62287;50.858;0.252;2023-04-07T00:21:31;101634.58;;;14.70;35.63
73936;BME280;62287;50.858;0.252;2023-04-07T00:22:01;101634.45;;;14.63;35.64
73936;BME280;62287;50.858;0.252;2023-04-07T00:22:32;101636.81;;;15.44;35.58
73936;BME280;62287;50.858;0.252;2023-04-07T00:23:03;101638.46;;;14.79;35.52
73936;BME280;62287;50.858;0.252;2023-04-07T00:23:34;101635.86;;;14.62;35.55
73936;BME280;62287;50.858;0.252;2023-04-07T00:24:05;101637.29;;;15.26;35.78
73936;BME280;62287;50.858;0.252;2023-04-07T00:24:36;101635.33;;;14.86;35.61
73936;BME280;62287;50.858;0.252;2023-04-07T00:25:07;101637.19;;;14.75;35.58
73936;BME280;62287;50.858;0.252;2023-04-07T00:25:44;101636.30;;;14.62;35.65
73936;BME280;62287;50.858;0.252;2023-04-07T00:26:15;101636.59;;;14.67;35.61
73936;BME280;62287;50.858;0.252;2023-04-07T00:26:46;101634.86;;;14.53;35.65
73936;BME280;62287;50.858;0.252;2023-04-07T00:27:17;101636.02;;;14.86;35.70
73936;BME280;62287;50.858;0.252;2023-04-07T00:27:47;101637.99;;;14.51;35.69
73936;BME280;62287;50.858;0.252;2023-04-07T00:28:18;101637.88;;;15.03;35.56
73936;BME280;62287;50.858;0.252;2023-04-07T00:28:49;101638.22;;;14.70;35.63
73936;BME280;62287;50.858;0.252;2023-04-07T00:29:20;101637.47;;;14.43;35.74
73936;BME280;62287;50.858;0.252;2023-04-07T00:29:51;101637.28;;;14.78;35.74
73936;BME280;62287;50.858;0.252;2023-04-07T00:30:22;101637.30;;;14.57;35.78
73936;BME280;62287;50.858;0.252;2023-04-07T00:30:53;101637.14;;;14.89;35.79
73936;BME280;62287;50.858;0.252;2023-04-07T00:31:24;101637.47;;;14.38;35.80
73936;BME280;62287;50.858;0.252;2023-04-07T00:31:55;101638.84;;;14.37;35.79
73936;BME280;62287;50.858;0.252;2023-04-07T00:32:26;101638.10;;;14.54;35.73
73936;BME280;62287;50.858;0.252;2023-04-07T00:32:57;101639.46;;;14.28;35.86
73936;BME280;62287;50.858;0.252;2023-04-07T00:33:28;101638.44;;;14.32;35.83
73936;BME280;62287;50.858;0.252;2023-04-07T00:33:59;101639.64;;;14.75;35.85
73936;BME280;62287;50.858;0.252;2023-04-07T00:34:29;101640.39;;;15.11;35.95
73936;BME280;62287;50.858;0.252;2023-04-07T00:35:00;101640.47;;;15.31;35.81
73936;BME280;62287;50.858;0.252;2023-04-07T00:35:31;101638.06;;;14.59;35.85
73936;BME280;62287;50.858;0.252;2023-04-07T00:36:03;101640.92;;;14.48;35.83
73936;BME280;62287;50.858;0.252;2023-04-07T00:36:34;101641.27;;;14.85;35.74
73936;BME280;62287;50.858;0.252;2023-04-07T00:37:05;101641.06;;;14.49;35.68
73936;BME280;62287;50.858;0.252;2023-04-07T00:37:37;101640.95;;;15.15;35.73
73936;BME280;62287;50.858;0.252;2023-04-07T00:38:08;101640.86;;;14.41;35.74
73936;BME280;62287;50.858;0.252;2023-04-07T00:38:39;101641.50;;;14.47;35.70
73936;BME280;62287;50.858;0.252;2023-04-07T00:39:09;101642.86;;;15.09;35.82
73936;BME280;62287;50.858;0.252;2023-04-07T00:39:40;101642.10;;;14.46;35.71
73936;BME280;62287;50.858;0.252;2023-04-07T00:40:11;101643.22;;;14.55;35.67
73936;BME280;62287;50.858;0.252;2023-04-07T00:40:42;101644.57;;;14.72;35.81
73936;BME280;62287;50.858;0.252;2023-04-07T00:41:13;101644.19;;;14.59;35.91
73936;BME280;62287;50.858;0.252;2023-04-07T00:41:44;101642.31;;;14.66;35.74
73936;BME280;62287;50.858;0.252;2023-04-07T00:42:15;101640.92;;;14.57;35.74
73936;BME280;62287;50.858;0.252;2023-04-07T00:42:46;101642.66;;;14.54;35.75
73936;BME280;62287;50.858;0.252;2023-04-07T00:43:17;101641.44;;;14.59;35.72
73936;BME280;62287;50.858;0.252;2023-04-07T00:43:49;101641.67;;;14.43;35.71
73936;BME280;62287;50.858;0.252;2023-04-07T00:44:20;101641.52;;;14.98;35.68
73936;BME280;62287;50.858;0.252;2023-04-07T00:44:51;101640.31;;;14.62;35.67
73936;BME280;62287;50.858;0.252;2023-04-07T00:45:22;101641.14;;;14.73;35.58
73936;BME280;62287;50.858;0.252;2023-04-07T00:45:53;101640.99;;;14.20;35.67
73936;BME280;62287;50.858;0.252;2023-04-07T00:46:24;101641.22;;;14.84;35.67
73936;BME280;62287;50.858;0.252;2023-04-07T00:46:55;101641.55;;;14.82;35.68
73936;BME280;62287;50.858;0.252;2023-04-07T00:47:31;101641.89;;;14.91;35.63
73936;BME280;62287;50.858;0.252;2023-04-07T00:48:03;101642.27;;;14.59;35.73
73936;BME280;62287;50.858;0.252;2023-04-07T00:48:34;101642.20;;;14.43;35.77
73936;BME280;62287;50.858;0.252;2023-04-07T00:49:06;101643.83;;;15.33;35.68
73936;BME280;62287;50.858;0.252;2023-04-07T00:49:37;101644.22;;;14.54;35.60
73936;BME280;62287;50.858;0.252;2023-04-07T00:50:09;101644.64;;;14.46;35.64
73936;BME280;62287;50.858;0.252;2023-04-07T00:50:40;101645.06;;;14.53;35.59
73936;BME280;62287;50.858;0.252;2023-04-07T00:51:12;101646.00;;;14.47;35.64
73936;BME280;62287;50.858;0.252;2023-04-07T00:51:44;101644.76;;;14.37;35.76
73936;BME280;62287;50.858;0.252;2023-04-07T00:52:15;101646.27;;;15.16;35.78
73936;BME280;62287;50.858;0.252;2023-04-07T00:52:47;101648.12;;;14.53;35.58
73936;BME280;62287;50.858;0.252;2023-04-07T00:53:18;101648.28;;;14.60;35.61
73936;BME280;62287;50.858;0.252;2023-04-07T00:53:49;101649.20;;;14.50;35.62
73936;BME280;62287;50.858;0.252;2023-04-07T00:54:21;101649.23;;;14.86;35.62
73936;BME280;62287;50.858;0.252;2023-04-07T00:54:53;101647.84;;;14.54;35.59
73936;BME280;62287;50.858;0.252;2023-04-07T00:55:24;101647.19;;;14.78;35.61
73936;BME280;62287;50.858;0.252;2023-04-07T00:55:55;101647.89;;;14.51;35.56
73936;BME280;62287;50.858;0.252;2023-04-07T00:56:26;101647.27;;;14.57;35.66
73936;BME280;62287;50.858;0.252;2023-04-07T00:56:58;101646.82;;;14.08;35.74
73936;BME280;62287;50.858;0.252;2023-04-07T00:57:29;101647.49;;;15.04;35.73
73936;BME280;62287;50.858;0.252;2023-04-07T00:58:00;101646.31;;;14.79;35.66
73936;BME280;62287;50.858;0.252;2023-04-07T00:58:31;101646.27;;;14.50;35.63
73936;BME280;62287;50.858;0.252;2023-04-07T00:59:03;101646.85;;;14.41;35.66
73936;BME280;62287;50.858;0.252;2023-04-07T00:59:34;101644.87;;;14.48;35.60
73936;BME280;62287;50.858;0.252;2023-04-07T01:00:07;101647.08;;;15.23;35.56
73936;BME280;62287;50.858;0.252;2023-04-07T01:00:44;101645.35;;;14.79;35.65
73936;BME280;62287;50.858;0.252;2023-04-07T01:01:22;101645.13;;;14.48;35.60
73936;BME280;62287;50.858;0.252;2023-04-07T01:01:59;101644.96;;;14.52;35.56
73936;BME280;62287;50.858;0.252;2023-04-07T01:02:35;101645.71;;;14.96;35.47
73936;BME280;62287;50.858;0.252;2023-04-07T01:03:09;101645.61;;;14.49;35.54
73936;BME280;62287;50.858;0.252;2023-04-07T01:03:48;101645.84;;;14.57;35.59
73936;BME280;62287;50.858;0.252;2023-04-07T01:04:28;101647.47;;;14.32;35.71
73936;BME280;62287;50.858;0.252;2023-04-07T01:05:08;101646.66;;;14.42;35.65
73936;BME280;62287;50.858;0.252;2023-04-07T01:05:49;101645.30;;;14.43;35.58
73936;BME280;62287;50.858;0.252;2023-04-07T01:06:27;101646.37;;;15.04;35.67
73936;BME280;62287;50.858;0.252;2023-04-07T01:07:04;101645.14;;;14.84;35.55
73936;BME280;62287;50.858;0.252;2023-04-07T01:07:43;101645.72;;;14.55;35.48
73936;BME280;62287;50.858;0.252;2023-04-07T01:08:23;101645.42;;;14.77;35.56
73936;BME280;62287;50.858;0.252;2023-04-07T01:08:59;101647.19;;;14.41;35.57
73936;BME280;62287;50.858;0.252;2023-04-07T01:09:36;101647.88;;;14.77;35.58
73936;BME280;62287;50.858;0.252;2023-04-07T01:10:12;101647.02;;;14.50;35.58
73936;BME280;62287;50.858;0.252;2023-04-07T01:10:49;101647.10;;;14.69;35.63
73936;BME280;62287;50.858;0.252;2023-04-07T01:11:24;101650.31;;;14.28;35.69
73936;BME280;62287;50.858;0.252;2023-04-07T01:12:02;101649.00;;;15.08;35.61
73936;BME280;62287;50.858;0.252;2023-04-07T01:12:51;101648.98;;;14.32;35.63
73936;BME280;62287;50.858;0.252;2023-04-07T01:13:28;101651.08;;;14.34;35.74
73936;BME280;62287;50.858;0.252;2023-04-07T01:14:00;101649.28;;;14.28;35.71
73936;BME280;62287;50.858;0.252;2023-04-07T01:14:40;101650.70;;;15.07;35.64
73936;BME280;62287;50.858;0.252;2023-04-07T01:15:12;101651.28;;;14.33;35.65
73936;BME280;62287;50.858;0.252;2023-04-07T01:15:45;101653.55;;;14.76;35.57
73936;BME280;62287;50.858;0.252;2023-04-07T01:16:33;101651.70;;;14.64;35.65
73936;BME280;62287;50.858;0.252;2023-04-07T01:17:06;101652.62;;;14.77;35.56
73936;BME280;62287;50.858;0.252;2023-04-07T01:17:42;101653.87;;;14.27;35.64
73936;BME280;62287;50.858;0.252;2023-04-07T01:18:20;101656.70;;;14.74;35.54
73936;BME280;62287;50.858;0.252;2023-04-07T01:18:54;101655.89;;;14.21;35.67
73936;BME280;62287;50.858;0.252;2023-04-07T01:19:33;101656.39;;;14.24;35.68
73936;BME280;62287;50.858;0.252;2023-04-07T01:20:07;101656.67;;;14.70;35.73
73936;BME280;62287;50.858;0.252;2023-04-07T01:20:42;101656.54;;;14.71;35.66
73936;BME280;62287;50.858;0.252;2023-04-07T01:21:17;101658.48;;;14.42;35.63
73936;BME280;62287;50.858;0.252;2023-04-07T01:21:49;101658.31;;;14.17;35.72
73936;BME280;62287;50.858;0.252;2023-04-07T01:22:28;101659.80;;;14.62;35.72
73936;BME280;62287;50.858;0.252;2023-04-07T01:23:05;101659.79;;;14.60;35.64
73936;BME280;62287;50.858;0.252;2023-04-07T01:23:50;101657.73;;;14.62;35.72
73936;BME280;62287;50.858;0.252;2023-04-07T01:24:38;101660.87;;;14.64;35.59
73936;BME280;62287;50.858;0.252;2023-04-07T01:25:26;101660.82;;;15.12;35.66
73936;BME280;62287;50.858;0.252;2023-04-07T01:26:11;101661.16;;;14.38;35.72
73936;BME280;62287;50.858;0.252;2023-04-07T01:26:48;101660.85;;;14.60;35.63
73936;BME280;62287;50.858;0.252;2023-04-07T01:27:28;101660.63;;;14.59;35.76
73936;BME280;62287;50.858;0.252;2023-04-07T01:28:16;101658.50;;;14.36;35.64
73936;BME280;62287;50.858;0.252;2023-04-07T01:29:30;101658.91;;;14.65;35.59
73936;BME280;62287;50.858;0.252;2023-04-07T01:30:07;101656.66;;;14.65;35.59
73936;BME280;62287;50.858;0.252;2023-04-07T01:30:40;101657.27;;;14.19;35.66
73936;BME280;62287;50.858;0.252;2023-04-07T01:31:13;101657.35;;;14.18;35.76
73936;BME280;62287;50.858;0.252;2023-04-07T01:31:45;101655.47;;;14.72;35.67
73936;BME280;62287;50.858;0.252;2023-04-07T01:32:17;101656.17;;;14.57;35.69
73936;BME280;62287;50.858;0.252;2023-04-07T01:32:51;101657.05;;;14.45;35.73
73936;BME280;62287;50.858;0.252;2023-04-07T01:33:23;101657.79;;;14.72;35.80
73936;BME280;62287;50.858;0.252;2023-04-07T01:33:58;101656.21;;;14.21;35.66
73936;BME280;62287;50.858;0.252;2023-04-07T01:34:31;101655.55;;;14.61;35.72
73936;BME280;62287;50.858;0.252;2023-04-07T01:35:04;101654.28;;;14.48;35.78
73936;BME280;62287;50.858;0.252;2023-04-07T01:35:36;101656.93;;;14.12;35.86
73936;BME280;62287;50.858;0.252;2023-04-07T01:36:09;101657.55;;;14.54;35.76
73936;BME280;62287;50.858;0.252;2023-04-07T01:36:42;101658.37;;;14.44;35.77
73936;BME280;62287;50.858;0.252;2023-04-07T01:37:15;101656.90;;;14.45;35.78
73936;BME280;62287;50.858;0.252;2023-04-07T01:37:48;101660.22;;;14.45;35.69
73936;BME280;62287;50.858;0.252;2023-04-07T01:38:20;101658.70;;;14.58;35.72
73936;BME280;62287;50.858;0.252;2023-04-07T01:38:51;101659.87;;;14.49;35.73
73936;BME280;62287;50.858;0.252;2023-04-07T01:39:24;101659.19;;;14.54;35.65
73936;BME280;62287;50.858;0.252;2023-04-07T01:39:56;101659.19;;;14.15;35.66
73936;BME280;62287;50.858;0.252;2023-04-07T01:40:28;101658.35;;;14.18;35.73
73936;BME280;62287;50.858;0.252;2023-04-07T01:41:00;101659.58;;;14.55;35.66
73936;BME280;62287;50.858;0.252;2023-04-07T01:41:32;101658.59;;;14.19;35.73
73936;BME280;62287;50.858;0.252;2023-04-07T01:42:04;101661.17;;;14.31;35.62
73936;BME280;62287;50.858;0.252;2023-04-07T01:42:37;101660.51;;;14.65;35.64
73936;BME280;62287;50.858;0.252;2023-04-07T01:43:10;101659.99;;;14.25;35.57
73936;BME280;62287;50.858;0.252;2023-04-07T01:43:42;101658.88;;;14.98;35.60
73936;BME280;62287;50.858;0.252;2023-04-07T01:44:13;101657.73;;;14.66;35.57
73936;BME280;62287;50.858;0.252;2023-04-07T01:44:45;101656.70;;;14.60;35.60
73936;BME280;62287;50.858;0.252;2023-04-07T01:45:18;101657.55;;;14.30;35.61
73936;BME280;62287;50.858;0.252;2023-04-07T01:45:50;101657.75;;;14.27;35.59
73936;BME280;62287;50.858;0.252;2023-04-07T01:46:22;101655.93;;;14.16;35.72
73936;BME280;62287;50.858;0.252;2023-04-07T01:46:53;101656.83;;;14.62;35.78
73936;BME280;62287;50.858;0.252;2023-04-07T01:47:25;101657.00;;;14.13;35.77
73936;BME280;62287;50.858;0.252;2023-04-07T01:47:57;101657.71;;;14.07;35.80
73936;BME280;62287;50.858;0.252;2023-04-07T01:48:29;101656.74;;;14.23;35.78
73936;BME280;62287;50.858;0.252;2023-04-07T01:49:01;101657.06;;;14.00;35.94
73936;BME280;62287;50.858;0.252;2023-04-07T01:49:33;101657.20;;;13.97;35.88
73936;BME280;62287;50.858;0.252;2023-04-07T01:50:05;101656.82;;;14.22;35.72
73936;BME280;62287;50.858;0.252;2023-04-07T01:50:37;101654.83;;;14.07;35.83
73936;BME280;62287;50.858;0.252;2023-04-07T01:51:09;101656.15;;;14.35;35.60
73936;BME280;62287;50.858;0.252;2023-04-07T01:51:41;101655.31;;;14.58;35.60
73936;BME280;62287;50.858;0.252;2023-04-07T01:52:13;101655.07;;;14.90;35.65
73936;BME280;62287;50.858;0.252;2023-04-07T01:52:44;101653.32;;;14.35;35.60
73936;BME280;62287;50.858;0.252;2023-04-07T01:53:16;101652.87;;;14.85;35.73
73936;BME280;62287;50.858;0.252;2023-04-07T01:53:47;101654.00;;;14.84;35.75
73936;BME280;62287;50.858;0.252;2023-04-07T01:54:25;101654.08;;;14.32;35.79
73936;BME280;62287;50.858;0.252;2023-04-07T01:54:56;101655.54;;;14.70;35.86
73936;BME280;62287;50.858;0.252;2023-04-07T01:55:27;101654.37;;;13.89;35.91
73936;BME280;62287;50.858;0.252;2023-04-07T01:55:59;101653.99;;;14.47;35.82
73936;BME280;62287;50.858;0.252;2023-04-07T01:56:29;101653.49;;;14.07;35.85
73936;BME280;62287;50.858;0.252;2023-04-07T01:57:00;101655.94;;;14.85;35.83
73936;BME280;62287;50.858;0.252;2023-04-07T01:57:31;101655.89;;;14.81;35.76
73936;BME280;62287;50.858;0.252;2023-04-07T01:58:04;101654.88;;;14.57;35.69
73936;BME280;62287;50.858;0.252;2023-04-07T01:58:35;101656.32;;;14.43;35.68
73936;BME280;62287;50.858;0.252;2023-04-07T01:59:06;101654.95;;;14.50;35.69
73936;BME280;62287;50.858;0.252;2023-04-07T01:59:37;101655.70;;;14.44;35.73
73936;BME280;62287;50.858;0.252;2023-04-07T02:00:08;101655.16;;;14.54;35.67
73936;BME280;62287;50.858;0.252;2023-04-07T02:00:40;101655.58;;;14.38;35.69
73936;BME280;62287;50.858;0.252;2023-04-07T02:01:12;101655.53;;;14.64;35.64
73936;BME280;62287;50.858;0.252;2023-04-07T02:01:43;101653.70;;;14.37;35.74
73936;BME280;62287;50.858;0.252;2023-04-07T02:02:14;101654.65;;;14.54;35.65
73936;BME280;62287;50.858;0.252;2023-04-07T02:02:48;101652.70;;;14.15;35.66
73936;BME280;62287;50.858;0.252;2023-04-07T02:03:28;101653.76;;;14.94;35.61
73936;BME280;62287;50.858;0.252;2023-04-07T02:04:05;101654.17;;;14.50;35.68
73936;BME280;62287;50.858;0.252;2023-04-07T02:04:47;101655.15;;;14.05;35.76
73936;BME280;62287;50.858;0.252;2023-04-07T02:05:19;101654.40;;;14.81;35.68
73936;BME280;62287;50.858;0.252;2023-04-07T02:05:54;101654.20;;;14.03;35.70
73936;BME280;62287;50.858;0.252;2023-04-07T02:06:33;101657.46;;;14.11;35.68
73936;BME280;62287;50.858;0.252;2023-04-07T02:07:08;101658.10;;;14.09;35.79
73936;BME280;62287;50.858;0.252;2023-04-07T02:07:47;101658.05;;;14.95;35.68
73936;BME280;62287;50.858;0.252;2023-04-07T02:08:20;101656.50;;;14.37;35.69
73936;BME280;62287;50.858;0.252;2023-04-07T02:09:06;101659.17;;;14.44;35.69
73936;BME280;62287;50.858;0.252;2023-04-07T02:09:38;101661.32;;;14.90;35.68
73936;BME280;62287;50.858;0.252;2023-04-07T02:10:13;101661.86;;;14.46;35.66
73936;BME280;62287;50.858;0.252;2023-04-07T02:10:46;101662.22;;;14.43;35.66
73936;BME280;62287;50.858;0.252;2023-04-07T02:11:20;101663.44;;;14.81;35.64
73936;BME280;62287;50.858;0.252;2023-04-07T02:11:52;101663.29;;;14.66;35.59
73936;BME280;62287;50.858;0.252;2023-04-07T02:12:26;101665.37;;;14.61;35.56
73936;BME280;62287;50.858;0.252;2023-04-07T02:12:59;101665.80;;;14.65;35.58
73936;BME280;62287;50.858;0.252;2023-04-07T02:13:32;101666.04;;;14.58;35.66
73936;BME280;62287;50.858;0.252;2023-04-07T02:14:05;101667.06;;;14.38;35.65
73936;BME280;62287;50.858;0.252;2023-04-07T02:14:37;101665.42;;;14.84;35.58
73936;BME280;62287;50.858;0.252;2023-04-07T02:15:10;101667.83;;;14.17;35.69
73936;BME280;62287;50.858;0.252;2023-04-07T02:15:42;101667.49;;;14.09;35.71
73936;BME280;62287;50.858;0.252;2023-04-07T02:16:14;101664.94;;;14.93;35.56
73936;BME280;62287;50.858;0.252;2023-04-07T02:16:47;101664.78;;;14.74;35.47
73936;BME280;62287;50.858;0.252;2023-04-07T02:17:18;101664.03;;;14.72;35.53
73936;BME280;62287;50.858;0.252;2023-04-07T02:17:52;101664.15;;;14.82;35.66
73936;BME280;62287;50.858;0.252;2023-04-07T02:18:25;101661.84;;;14.95;35.64
73936;BME280;62287;50.858;0.252;2023-04-07T02:18:56;101662.77;;;14.82;35.61
73936;BME280;62287;50.858;0.252;2023-04-07T02:19:28;101661.77;;;14.15;35.70
73936;BME280;62287;50.858;0.252;2023-04-07T02:20:00;101663.66;;;14.07;35.63
73936;BME280;62287;50.858;0.252;2023-04-07T02:20:34;101662.08;;;14.88;35.68
73936;BME280;62287;50.858;0.252;2023-04-07T02:21:07;101661.41;;;14.55;35.72
73936;BME280;62287;50.858;0.252;2023-04-07T02:21:39;101662.47;;;14.49;35.75
73936;BME280;62287;50.858;0.252;2023-04-07T02:22:11;101665.50;;;13.88;35.77
73936;BME280;62287;50.858;0.252;2023-04-07T02:22:43;101665.16;;;13.82;35.86
73936;BME280;62287;50.858;0.252;2023-04-07T02:23:14;101664.84;;;14.27;35.86
73936;BME280;62287;50.858;0.252;2023-04-07T02:23:46;101663.81;;;14.47;35.83
73936;BME280;62287;50.858;0.252;2023-04-07T02:24:19;101667.28;;;14.22;35.92
73936;BME280;62287;50.858;0.252;2023-04-07T02:24:50;101662.38;;;14.09;35.82
73936;BME280;62287;50.858;0.252;2023-04-07T02:25:21;101661.54;;;14.44;35.72
73936;BME280;62287;50.858;0.252;2023-04-07T02:25:55;101664.87;;;14.38;35.82
73936;BME280;62287;50.858;0.252;2023-04-07T02:26:26;101663.67;;;14.27;35.76
73936;BME280;62287;50.858;0.252;2023-04-07T02:26:57;101665.07;;;14.71;35.85
73936;BME280;62287;50.858;0.252;2023-04-07T02:27:28;101665.25;;;14.74;35.86
73936;BME280;62287;50.858;0.252;2023-04-07T02:27:59;101664.00;;;14.52;35.78
73936;BME280;62287;50.858;0.252;2023-04-07T02:28:30;101668.40;;;14.78;35.79
73936;BME280;62287;50.858;0.252;2023-04-07T02:29:02;101668.63;;;14.47;35.82
73936;BME280;62287;50.858;0.252;2023-04-07T02:29:33;101670.60;;;14.62;35.85
73936;BME280;62287;50.858;0.252;2023-04-07T02:30:05;101670.51;;;14.73;35.82
73936;BME280;62287;50.858;0.252;2023-04-07T02:30:36;101668.46;;;14.70;35.84
73936;BME280;62287;50.858;0.252;2023-04-07T02:31:07;101668.49;;;14.60;35.95
73936;BME280;62287;50.858;0.252;2023-04-07T02:31:38;101668.62;;;14.38;35.83
73936;BME280;62287;50.858;0.252;2023-04-07T02:32:09;101668.20;;;14.67;35.90
73936;BME280;62287;50.858;0.252;2023-04-07T02:32:40;101669.56;;;14.63;35.89
73936;BME280;62287;50.858;0.252;2023-04-07T02:33:11;101669.36;;;14.23;36.00
73936;BME280;62287;50.858;0.252;2023-04-07T02:33:42;101666.70;;;14.53;35.96
73936;BME280;62287;50.858;0.252;2023-04-07T02:34:13;101667.06;;;14.14;36.01
73936;BME280;62287;50.858;0.252;2023-04-07T02:34:44;101665.78;;;14.57;36.02
73936;BME280;62287;50.858;0.252;2023-04-07T02:35:15;101665.79;;;14.11;36.00
73936;BME280;62287;50.858;0.252;2023-04-07T02:35:46;101664.52;;;13.79;36.01
73936;BME280;62287;50.858;0.252;2023-04-07T02:36:17;101665.28;;;14.60;35.98
73936;BME280;62287;50.858;0.252;2023-04-07T02:36:48;101663.73;;;14.67;35.95
73936;BME280;62287;50.858;0.252;2023-04-07T02:37:19;101660.94;;;14.17;35.96
73936;BME280;62287;50.858;0.252;2023-04-07T02:37:50;101657.01;;;14.51;35.80
73936;BME280;62287;50.858;0.252;2023-04-07T02:38:21;101656.80;;;14.63;35.83
73936;BME280;62287;50.858;0.252;2023-04-07T02:38:52;101657.53;;;14.39;35.80
73936;BME280;62287;50.858;0.252;2023-04-07T02:39:23;101656.56;;;14.81;35.77
73936;BME280;62287;50.858;0.252;2023-04-07T02:39:54;101657.19;;;14.29;35.70
73936;BME280;62287;50.858;0.252;2023-04-07T02:40:25;101659.90;;;14.36;35.78
73936;BME280;62287;50.858;0.252;2023-04-07T02:40:56;101661.08;;;14.67;35.75
73936;BME280;62287;50.858;0.252;2023-04-07T02:41:27;101662.34;;;14.32;35.82
73936;BME280;62287;50.858;0.252;2023-04-07T02:41:58;101661.26;;;14.07;35.70
73936;BME280;62287;50.858;0.252;2023-04-07T02:42:29;101662.08;;;14.31;35.65
73936;BME280;62287;50.858;0.252;2023-04-07T02:42:59;101661.48;;;14.09;35.62
73936;BME280;62287;50.858;0.252;2023-04-07T02:43:30;101662.36;;;14.51;35.61
73936;BME280;62287;50.858;0.252;2023-04-07T02:44:01;101662.52;;;14.35;35.58
73936;BME280;62287;50.858;0.252;2023-04-07T02:44:32;101664.54;;;14.37;35.69
73936;BME280;62287;50.858;0.252;2023-04-07T02:45:04;101662.92;;;14.24;35.69
73936;BME280;62287;50.858;0.252;2023-04-07T02:45:35;101663.87;;;14.35;35.71
73936;BME280;62287;50.858;0.252;2023-04-07T02:46:06;101661.87;;;14.59;35.57
73936;BME280;62287;50.858;0.252;2023-04-07T02:46:37;101662.99;;;14.13;35.56
73936;BME280;62287;50.858;0.252;2023-04-07T02:47:07;101667.35;;;14.42;35.65
73936;BME280;62287;50.858;0.252;2023-04-07T02:47:39;101669.07;;;13.91;35.66
73936;BME280;62287;50.858;0.252;2023-04-07T02:48:10;101671.03;;;13.87;35.71
73936;BME280;62287;50.858;0.252;2023-04-07T02:48:40;101670.60;;;14.14;35.64
73936;BME280;62287;50.858;0.252;2023-04-07T02:49:11;101669.94;;;14.02;35.68
73936;BME280;62287;50.858;0.252;2023-04-07T02:49:42;101667.89;;;14.40;35.59
73936;BME280;62287;50.858;0.252;2023-04-07T02:50:13;101669.94;;;14.35;35.68
73936;BME280;62287;50.858;0.252;2023-04-07T02:50:44;101667.68;;;14.42;35.66
73936;BME280;62287;50.858;0.252;2023-04-07T02:51:15;101665.11;;;14.20;35.59
73936;BME280;62287;50.858;0.252;2023-04-07T02:51:46;101665.19;;;14.39;35.57